createdAt,value
2022-08-26T00:00:53.752Z,4.97
2022-08-26T00:03:23.833Z,4.93
2022-08-26T00:05:59.879Z,4.57
2022-08-26T00:08:27.963Z,4.25
2022-08-26T00:10:56.020Z,4.47
2022-08-26T00:13:28.715Z,5.20
2022-08-26T00:15:57.398Z,5.07
2022-08-26T00:18:25.946Z,5.15
2022-08-26T00:20:55.313Z,4.90
2022-08-26T00:24:26.605Z,4.70
2022-08-26T00:26:52.405Z,5.28
2022-08-26T00:29:21.353Z,5.45
2022-08-26T00:31:50.708Z,4.85
2022-08-26T00:34:19.585Z,4.95
2022-08-26T00:36:49.341Z,4.65
2022-08-26T00:39:21.147Z,4.75
2022-08-26T00:41:50.214Z,5.25
2022-08-26T00:44:18.499Z,5.05
2022-08-26T00:46:53.990Z,4.72
2022-08-26T00:49:42.952Z,5.43
2022-08-26T00:52:17.006Z,5.05
2022-08-26T00:55:38.933Z,4.88
2022-08-26T00:58:08.816Z,5.30
2022-08-26T01:00:36.881Z,5.40
2022-08-26T01:03:05.500Z,5.32
2022-08-26T01:05:35.867Z,4.88
2022-08-26T01:08:04.395Z,4.97
2022-08-26T01:10:32.582Z,5.20
2022-08-26T01:13:10.437Z,4.93
2022-08-26T01:15:49.441Z,4.68
2022-08-26T01:18:18.996Z,4.53
2022-08-26T01:21:08.131Z,5.45
2022-08-26T01:23:42.987Z,5.10
2022-08-26T01:26:27.389Z,5.18
2022-08-26T01:28:59.020Z,4.93
2022-08-26T01:36:53.608Z,4.63
2022-08-26T01:39:22.019Z,4.68
2022-08-26T01:42:03.024Z,4.50
2022-08-26T01:44:38.885Z,4.65
2022-08-26T01:47:09.745Z,4.75
2022-08-26T01:49:38.479Z,5.03
2022-08-26T01:52:08.816Z,4.97
2022-08-26T01:54:39.244Z,5.07
2022-08-26T01:57:08.521Z,4.82
2022-08-26T01:59:36.798Z,4.90
2022-08-26T02:02:04.943Z,4.72
2022-08-26T02:04:48.176Z,5.05
2022-08-26T02:07:21.543Z,5.28
2022-08-26T02:12:31.842Z,5.15
2022-08-26T02:15:05.830Z,5.22
2022-08-26T02:17:44.778Z,6.05
2022-08-26T02:20:18.501Z,4.78
2022-08-26T02:22:48.035Z,5.05
2022-08-26T02:25:42.012Z,4.95
2022-08-26T02:28:12.777Z,5.25
2022-08-26T02:30:41.782Z,5.03
2022-08-26T02:33:10.726Z,5.00
2022-08-26T02:35:40.540Z,4.78
2022-08-26T02:38:11.235Z,5.13
2022-08-26T02:40:42.354Z,4.43
2022-08-26T02:43:12.558Z,4.85
2022-08-26T02:45:41.859Z,4.78
2022-08-26T02:48:17.209Z,5.10
2022-08-26T02:50:48.683Z,5.38
2022-08-26T02:53:23.205Z,4.78
2022-08-26T02:55:53.664Z,5.10
2022-08-26T02:58:21.685Z,5.43
2022-08-26T03:00:53.480Z,4.30
2022-08-26T03:03:23.668Z,5.25
2022-08-26T03:05:55.251Z,4.72
2022-08-26T03:08:23.569Z,5.28
2022-08-26T03:10:51.889Z,5.28
2022-08-26T03:13:19.877Z,5.35
2022-08-26T03:15:48.087Z,4.65
2022-08-26T03:18:16.421Z,4.93
2022-08-26T03:20:44.904Z,4.90
2022-08-26T03:23:13.029Z,5.32
2022-08-26T03:25:41.350Z,4.68
2022-08-26T03:28:09.555Z,5.20
2022-08-26T03:30:44.824Z,5.25
2022-08-26T03:33:15.325Z,4.45
2022-08-26T03:35:47.985Z,4.65
2022-08-26T03:38:22.544Z,5.20
2022-08-26T03:43:21.612Z,5.25
2022-08-26T03:45:51.277Z,4.85
2022-08-26T03:48:19.543Z,4.57
2022-08-26T03:50:47.614Z,5.07
2022-08-26T03:53:17.269Z,4.72
2022-08-26T03:55:51.913Z,4.35
2022-08-26T03:58:21.506Z,4.88
2022-08-26T04:00:55.724Z,4.40
2022-08-26T04:03:44.703Z,4.80
2022-08-26T04:06:14.669Z,4.97
2022-08-26T04:08:54.963Z,4.60
2022-08-26T04:11:32.149Z,5.05
2022-08-26T04:14:09.800Z,4.53
2022-08-26T04:16:39.016Z,4.78
2022-08-26T04:19:07.406Z,4.68
2022-08-26T04:21:36.082Z,5.07
2022-08-26T04:24:12.202Z,4.90
2022-08-26T04:26:42.744Z,4.38
2022-08-26T04:29:24.135Z,5.28
2022-08-26T04:31:57.892Z,4.43
2022-08-26T04:34:28.984Z,4.25
2022-08-26T04:36:58.642Z,5.40
2022-08-26T04:39:28.137Z,4.40
2022-08-26T04:41:57.650Z,4.47
2022-08-26T04:44:29.877Z,4.82
2022-08-26T04:46:58.831Z,4.55
2022-08-26T04:49:27.715Z,4.82
2022-08-26T04:51:56.286Z,4.93
2022-08-26T04:54:26.244Z,4.80
2022-08-26T04:56:54.396Z,5.40
2022-08-26T04:59:23.214Z,4.88
2022-08-26T05:01:57.478Z,5.30
2022-08-26T05:04:25.936Z,5.18
2022-08-26T05:06:59.271Z,5.28
2022-08-26T05:09:30.941Z,5.63
2022-08-26T05:11:59.110Z,5.45
2022-08-26T05:14:27.345Z,5.85
2022-08-26T05:16:56.389Z,5.65
2022-08-26T05:19:24.895Z,5.65
2022-08-26T05:21:56.197Z,5.10
2022-08-26T05:24:24.686Z,6.13
2022-08-26T05:26:53.200Z,6.18
2022-08-26T05:29:21.592Z,6.03
2022-08-26T05:31:52.903Z,6.53
2022-08-26T05:34:24.075Z,5.60
2022-08-26T05:36:58.733Z,5.35
2022-08-26T05:39:26.976Z,6.30
2022-08-26T05:41:55.047Z,5.20
2022-08-26T05:44:23.321Z,5.35
2022-08-26T05:46:51.950Z,5.20
2022-08-26T05:49:20.485Z,5.25
2022-08-26T05:51:50.815Z,4.97
2022-08-26T05:54:22.041Z,4.82
2022-08-26T05:56:52.497Z,5.00
2022-08-26T05:59:21.398Z,4.50
2022-08-26T06:01:55.251Z,5.22
2022-08-26T06:04:27.430Z,4.82
2022-08-26T06:07:00.091Z,4.80
2022-08-26T06:09:28.456Z,4.47
2022-08-26T06:11:58.983Z,4.40
2022-08-26T06:14:27.244Z,4.88
2022-08-26T06:16:55.545Z,4.47
2022-08-26T06:19:23.816Z,4.95
2022-08-26T06:21:54.305Z,4.10
2022-08-26T06:24:42.010Z,4.38
2022-08-26T06:27:15.193Z,4.70
2022-08-26T06:29:43.581Z,4.85
2022-08-26T06:32:11.781Z,4.70
2022-08-26T06:34:43.107Z,4.68
2022-08-26T06:37:11.266Z,4.47
2022-08-26T06:39:42.231Z,4.43
2022-08-26T06:42:11.988Z,4.30
2022-08-26T06:44:44.881Z,4.30
2022-08-26T06:47:13.457Z,4.72
2022-08-26T06:49:41.867Z,4.63
2022-08-26T06:52:12.508Z,4.55
2022-08-26T06:54:44.332Z,4.72
2022-08-26T06:57:13.203Z,4.68
2022-08-26T06:59:42.730Z,4.83
2022-08-26T07:02:13.522Z,5.00
2022-08-26T07:04:43.125Z,4.30
2022-08-26T07:07:16.274Z,4.43
2022-08-26T07:09:44.420Z,4.63
2022-08-26T07:12:12.549Z,3.97
2022-08-26T07:14:41.529Z,4.28
2022-08-26T07:17:16.547Z,4.43
2022-08-26T07:19:46.164Z,4.50
2022-08-26T07:22:15.180Z,4.32
2022-08-26T07:24:44.834Z,4.13
2022-08-26T07:27:17.771Z,5.57
2022-08-26T07:29:46.837Z,4.63
2022-08-26T07:32:19.473Z,4.65
2022-08-26T07:34:49.365Z,4.70
2022-08-26T07:37:18.427Z,4.47
2022-08-26T07:39:48.654Z,4.60
2022-08-26T07:42:19.924Z,4.93
2022-08-26T07:44:48.293Z,4.70
2022-08-26T07:47:25.062Z,4.43
2022-08-26T07:49:57.709Z,4.85
2022-08-26T07:52:29.852Z,4.55
2022-08-26T07:55:01.039Z,4.60
2022-08-26T07:57:30.579Z,4.80
2022-08-26T07:59:59.825Z,5.00
2022-08-26T08:02:30.020Z,4.68
2022-08-26T08:04:59.750Z,4.88
2022-08-26T08:07:44.397Z,5.10
2022-08-26T08:10:21.436Z,4.60
2022-08-26T08:12:53.917Z,4.40
2022-08-26T08:15:26.843Z,4.63
2022-08-26T08:17:58.849Z,4.90
2022-08-26T08:20:30.184Z,4.57
2022-08-26T08:22:59.113Z,4.18
2022-08-26T08:25:27.833Z,4.38
2022-08-26T08:27:55.901Z,4.90
2022-08-26T08:30:25.195Z,4.45
2022-08-26T08:32:54.192Z,4.65
2022-08-26T08:35:26.582Z,4.65
2022-08-26T08:37:55.616Z,5.00
2022-08-26T08:40:27.850Z,5.05
2022-08-26T08:43:04.091Z,4.00
2022-08-26T08:46:04.587Z,4.72
2022-08-26T08:48:39.177Z,4.22
2022-08-26T08:51:22.463Z,4.13
2022-08-26T08:53:55.044Z,4.50
2022-08-26T08:56:49.959Z,4.18
2022-08-26T08:59:25.430Z,4.10
2022-08-26T09:02:46.146Z,4.07
2022-08-26T09:05:34.302Z,3.95
2022-08-26T09:08:11.612Z,4.45
2022-08-26T09:10:58.160Z,4.65
2022-08-26T09:13:28.225Z,4.10
2022-08-26T09:16:25.556Z,3.67
2022-08-26T09:18:59.557Z,4.40
2022-08-26T09:21:28.204Z,4.78
2022-08-26T09:23:57.431Z,4.20
2022-08-26T09:26:39.943Z,4.60
2022-08-26T09:29:25.995Z,4.13
2022-08-26T09:32:20.231Z,4.05
2022-08-26T09:35:08.183Z,4.28
2022-08-26T09:37:42.123Z,3.97
2022-08-26T09:40:36.406Z,3.88
2022-08-26T09:43:09.470Z,3.33
2022-08-26T09:45:39.777Z,3.78
2022-08-26T09:48:09.304Z,2.88
2022-08-26T09:51:00.306Z,2.75
2022-08-26T09:53:37.695Z,3.05
2022-08-26T09:56:25.898Z,3.75
2022-08-26T09:58:57.623Z,3.10
2022-08-26T10:01:42.168Z,2.80
2022-08-26T10:04:23.439Z,2.50
2022-08-26T10:07:05.866Z,2.65
2022-08-26T10:09:43.194Z,2.88
2022-08-26T10:12:21.703Z,2.58
2022-08-26T10:14:59.980Z,2.97
2022-08-26T10:17:46.579Z,2.83
2022-08-26T10:20:24.138Z,2.38
2022-08-26T10:23:23.386Z,2.47
2022-08-26T10:26:32.783Z,2.83
2022-08-26T10:29:23.580Z,2.75
2022-08-26T10:32:03.622Z,3.05
2022-08-26T10:34:35.199Z,2.58
2022-08-26T10:37:20.567Z,2.70
2022-08-26T10:40:02.867Z,2.97
2022-08-26T10:43:19.250Z,2.90
2022-08-26T10:45:57.857Z,3.10
2022-08-26T10:49:09.310Z,3.17
2022-08-26T10:51:53.214Z,2.70
2022-08-26T10:55:05.338Z,2.83
2022-08-26T10:58:05.960Z,2.92
2022-08-26T11:01:10.445Z,3.40
2022-08-26T11:03:54.286Z,3.20
2022-08-26T11:06:30.589Z,3.15
2022-08-26T11:09:05.894Z,3.40
2022-08-26T11:11:40.876Z,3.15
2022-08-26T11:14:18.160Z,3.00
2022-08-26T11:17:00.238Z,3.25
2022-08-26T11:19:59.485Z,3.00
2022-08-26T11:22:41.501Z,2.83
2022-08-26T11:25:29.960Z,3.05
2022-08-26T11:28:01.762Z,2.90
2022-08-26T11:30:41.145Z,2.97
2022-08-26T11:33:09.639Z,3.10
2022-08-26T11:35:38.539Z,2.92
2022-08-26T11:38:19.946Z,3.47
2022-08-26T11:41:21.139Z,3.20
2022-08-26T11:43:52.533Z,3.10
2022-08-26T11:46:28.879Z,3.30
2022-08-26T11:49:07.694Z,2.55
2022-08-26T11:51:40.361Z,3.83
2022-08-26T11:54:18.342Z,3.08
2022-08-26T11:57:11.798Z,3.17
2022-08-26T11:59:42.559Z,3.15
2022-08-26T12:02:17.909Z,3.13
2022-08-26T12:04:50.913Z,2.53
2022-08-26T12:07:26.145Z,3.00
2022-08-26T12:10:02.254Z,3.40
2022-08-26T12:12:38.931Z,3.00
2022-08-26T12:15:20.263Z,2.90
2022-08-26T12:18:03.551Z,3.00
2022-08-26T12:20:49.098Z,2.97
2022-08-26T12:23:35.289Z,3.00
2022-08-26T12:26:31.749Z,3.10
2022-08-26T12:29:10.819Z,3.10
2022-08-26T12:31:50.157Z,2.92
2022-08-26T12:34:19.074Z,2.83
2022-08-26T12:36:55.307Z,3.60
2022-08-26T12:39:38.678Z,3.22
2022-08-26T12:42:39.727Z,3.60
2022-08-26T12:45:09.226Z,3.17
2022-08-26T12:47:44.419Z,3.38
2022-08-26T12:50:27.621Z,2.88
2022-08-26T12:53:25.411Z,2.90
2022-08-26T12:55:58.128Z,3.10
2022-08-26T12:58:38.825Z,2.88
2022-08-26T13:01:07.281Z,2.78
2022-08-26T13:03:35.545Z,2.88
2022-08-26T13:06:30.089Z,2.80
2022-08-26T13:09:09.304Z,2.80
2022-08-26T13:11:40.742Z,3.35
2022-08-26T13:14:23.752Z,2.63
2022-08-26T13:16:53.492Z,2.92
2022-08-26T13:19:25.768Z,3.20
2022-08-26T13:21:57.715Z,3.17
2022-08-26T13:24:44.268Z,3.30
2022-08-26T13:27:15.065Z,3.03
2022-08-26T13:29:43.155Z,2.97
2022-08-26T13:32:11.340Z,2.88
2022-08-26T13:34:40.211Z,3.22
2022-08-26T13:37:08.354Z,2.80
2022-08-26T13:39:36.940Z,2.83
2022-08-26T13:42:05.524Z,2.55
2022-08-26T13:44:33.755Z,2.78
2022-08-26T13:47:01.846Z,2.80
2022-08-26T13:49:30.138Z,2.95
2022-08-26T13:51:58.193Z,3.13
2022-08-26T13:54:26.286Z,3.05
2022-08-26T13:56:54.808Z,2.88
2022-08-26T13:59:22.836Z,2.92
2022-08-26T14:01:51.121Z,3.00
2022-08-26T14:04:20.772Z,2.67
2022-08-26T14:06:55.398Z,2.83
2022-08-26T14:09:24.153Z,3.08
2022-08-26T14:11:54.077Z,3.53
2022-08-26T14:14:23.745Z,3.10
2022-08-26T14:16:59.599Z,2.80
2022-08-26T14:19:31.655Z,3.30
2022-08-26T14:22:02.201Z,3.10
2022-08-26T14:24:30.493Z,2.53
2022-08-26T14:26:58.867Z,2.75
2022-08-26T14:29:27.680Z,2.85
2022-08-26T14:31:59.829Z,3.10
2022-08-26T14:34:28.470Z,2.95
2022-08-26T14:36:56.594Z,2.90
2022-08-26T14:39:25.490Z,3.30
2022-08-26T14:41:57.006Z,3.03
2022-08-26T14:44:32.967Z,3.08
2022-08-26T14:47:04.371Z,3.33
2022-08-26T14:49:32.717Z,3.20
2022-08-26T14:52:00.918Z,2.63
2022-08-26T14:54:29.873Z,3.17
2022-08-26T14:57:05.010Z,2.88
2022-08-26T14:59:41.054Z,2.83
2022-08-26T15:02:13.668Z,2.95
2022-08-26T15:04:50.790Z,2.80
2022-08-26T15:07:20.532Z,3.05
2022-08-26T15:09:48.839Z,2.65
2022-08-26T15:12:17.122Z,3.30
2022-08-26T15:14:45.416Z,3.08
2022-08-26T15:17:13.637Z,3.22
2022-08-26T15:19:41.837Z,3.05
2022-08-26T15:22:10.531Z,3.15
2022-08-26T15:24:41.583Z,2.97
2022-08-26T15:27:10.114Z,2.95
2022-08-26T15:29:42.038Z,3.05
2022-08-26T15:32:10.292Z,3.08
2022-08-26T15:34:39.166Z,2.83
2022-08-26T15:37:07.724Z,2.90
2022-08-26T15:39:35.987Z,3.05
2022-08-26T15:42:04.822Z,2.90
2022-08-26T15:44:34.351Z,2.90
2022-08-26T15:47:02.654Z,2.90
2022-08-26T15:49:32.387Z,3.42
2022-08-26T15:52:00.379Z,3.10
2022-08-26T15:54:28.535Z,3.08
2022-08-26T15:56:57.602Z,3.40
2022-08-26T15:59:26.871Z,3.23
2022-08-26T16:01:55.544Z,3.55
2022-08-26T16:04:23.987Z,3.35
2022-08-26T16:06:53.487Z,3.28
2022-08-26T16:09:27.392Z,3.25
2022-08-26T16:11:56.427Z,3.60
2022-08-26T16:14:25.404Z,3.38
2022-08-26T16:16:54.048Z,3.20
2022-08-26T16:19:22.380Z,3.95
2022-08-26T16:21:51.805Z,3.47
2022-08-26T16:24:28.454Z,3.65
2022-08-26T16:27:00.067Z,3.67
2022-08-26T16:29:28.965Z,3.70
2022-08-26T16:31:57.112Z,3.72
2022-08-26T16:34:25.196Z,3.60
2022-08-26T16:36:53.695Z,3.40
2022-08-26T16:39:22.850Z,3.53
2022-08-26T16:41:51.088Z,3.95
2022-08-26T16:44:19.593Z,3.65
2022-08-26T16:46:47.828Z,3.55
2022-08-26T16:49:16.078Z,4.13
2022-08-26T16:51:44.687Z,3.58
2022-08-26T16:54:13.196Z,4.07
2022-08-26T16:56:41.451Z,3.28
2022-08-26T16:59:11.887Z,3.60
2022-08-26T17:01:40.823Z,3.63
2022-08-26T17:04:11.082Z,4.20
2022-08-26T17:06:39.782Z,3.53
2022-08-26T17:09:08.423Z,3.47
2022-08-26T17:11:36.571Z,3.40
2022-08-26T17:14:06.416Z,4.03
2022-08-26T17:16:34.731Z,3.80
2022-08-26T17:19:04.638Z,3.72
2022-08-26T17:21:36.439Z,3.75
2022-08-26T17:24:06.874Z,4.25
2022-08-26T17:26:36.002Z,4.32
2022-08-26T17:29:07.569Z,3.83
2022-08-26T17:31:35.934Z,4.13
2022-08-26T17:34:04.802Z,4.05
2022-08-26T17:36:32.937Z,3.65
2022-08-26T17:39:01.762Z,4.15
2022-08-26T17:41:30.182Z,3.97
2022-08-26T17:43:58.626Z,4.05
2022-08-26T17:46:27.156Z,4.05
2022-08-26T17:48:55.430Z,4.00
2022-08-26T17:51:24.538Z,4.40
2022-08-26T17:53:53.616Z,5.85
2022-08-26T17:56:30.075Z,4.35
2022-08-26T17:59:02.868Z,4.40
2022-08-26T18:01:33.442Z,4.30
2022-08-26T18:04:03.902Z,4.50
2022-08-26T18:06:32.683Z,4.28
2022-08-26T18:09:02.125Z,4.38
2022-08-26T18:11:32.916Z,4.85
2022-08-26T18:14:01.123Z,4.60
2022-08-26T18:16:34.412Z,4.45
2022-08-26T18:19:02.702Z,4.85
2022-08-26T18:21:31.135Z,5.22
2022-08-26T18:23:59.855Z,4.95
2022-08-26T18:26:40.905Z,4.57
2022-08-26T18:29:09.362Z,4.85
2022-08-26T18:31:37.683Z,4.70
2022-08-26T18:34:05.792Z,5.05
2022-08-26T18:36:37.214Z,7.53
2022-08-26T18:41:44.359Z,11.38
2022-08-26T18:44:14.406Z,7.68
2022-08-26T18:46:43.243Z,6.10
2022-08-26T18:49:21.289Z,5.95
2022-08-26T18:51:51.261Z,5.95
2022-08-26T18:56:53.783Z,6.15
2022-08-26T18:59:30.280Z,6.15
2022-08-26T19:01:59.450Z,5.50
2022-08-26T19:04:28.039Z,5.70
2022-08-26T19:06:56.228Z,6.03
2022-08-26T19:09:27.275Z,5.57
2022-08-26T19:14:30.166Z,5.72
2022-08-26T19:16:58.544Z,6.20
2022-08-26T19:19:27.000Z,6.10
2022-08-26T19:21:55.698Z,5.43
2022-08-26T19:24:27.290Z,5.35
2022-08-26T19:27:01.247Z,6.20
2022-08-26T19:29:35.444Z,5.43
2022-08-26T19:32:04.713Z,6.13
2022-08-26T19:34:32.859Z,5.82
2022-08-26T19:37:01.072Z,5.93
2022-08-26T19:39:29.656Z,5.97
2022-08-26T19:42:00.586Z,6.53
2022-08-26T19:44:48.369Z,5.65
2022-08-26T19:47:16.792Z,6.60
2022-08-26T19:49:45.848Z,7.15
2022-08-26T19:52:15.125Z,7.45
2022-08-26T19:54:46.057Z,7.15
2022-08-26T19:57:14.428Z,6.97
2022-08-26T19:59:43.407Z,7.07
2022-08-26T20:02:12.262Z,11.00
2022-08-26T20:04:46.602Z,9.05
2022-08-26T20:07:18.587Z,7.10
2022-08-26T20:09:49.430Z,8.00
2022-08-26T20:12:18.833Z,8.18
2022-08-26T20:14:47.422Z,8.77
2022-08-26T20:17:17.366Z,7.93
2022-08-26T20:20:04.209Z,7.18
2022-08-26T20:22:33.981Z,7.93
2022-08-26T20:25:02.295Z,7.20
2022-08-26T20:27:37.718Z,7.13
2022-08-26T20:30:09.354Z,7.00
2022-08-26T20:32:39.957Z,7.57
2022-08-26T20:35:13.489Z,7.33
2022-08-26T20:37:42.494Z,7.00
2022-08-26T20:40:13.893Z,7.40
2022-08-26T20:42:42.710Z,7.30
2022-08-26T20:45:11.400Z,6.88
2022-08-26T20:47:40.077Z,7.25
2022-08-26T20:50:09.086Z,7.50
2022-08-26T20:52:37.222Z,7.53
2022-08-26T20:55:06.034Z,6.82
2022-08-26T20:57:34.163Z,7.60
2022-08-26T21:00:02.584Z,6.95
2022-08-26T21:02:30.968Z,6.70
2022-08-26T21:05:00.315Z,7.65
2022-08-26T21:07:30.412Z,6.95
2022-08-26T21:09:58.562Z,7.20
2022-08-26T21:12:27.729Z,7.25
2022-08-26T21:14:55.992Z,8.88
2022-08-26T21:17:24.075Z,8.68
2022-08-26T21:19:52.272Z,8.93
2022-08-26T21:22:21.264Z,9.18
2022-08-26T21:24:49.476Z,8.85
2022-08-26T21:27:21.321Z,9.68
2022-08-26T21:29:54.698Z,8.90
2022-08-26T21:32:23.145Z,9.25
2022-08-26T21:34:56.281Z,8.27
2022-08-26T21:37:25.844Z,8.75
2022-08-26T21:39:56.348Z,7.97
2022-08-26T21:42:26.896Z,8.65
2022-08-26T21:44:56.252Z,8.57
2022-08-26T21:47:25.117Z,8.05
2022-08-26T21:49:56.728Z,8.68
2022-08-26T21:54:59.052Z,8.38
2022-08-26T21:57:29.261Z,8.77
2022-08-26T21:59:57.756Z,8.57
2022-08-26T22:02:26.005Z,7.93
2022-08-26T22:04:54.225Z,7.82
2022-08-26T22:07:22.458Z,9.20
2022-08-26T22:09:50.823Z,9.20
2022-08-26T22:12:19.255Z,10.60
2022-08-26T22:14:48.050Z,8.75
2022-08-26T22:17:17.166Z,8.70
2022-08-26T22:19:46.365Z,9.43
2022-08-26T22:22:15.460Z,8.20
2022-08-26T22:24:44.002Z,9.80
2022-08-26T22:27:13.366Z,10.02
2022-08-26T22:29:41.702Z,9.05
2022-08-26T22:32:10.226Z,9.98
2022-08-26T22:34:38.781Z,9.18
2022-08-26T22:37:07.009Z,9.13
2022-08-26T22:39:35.285Z,9.25
2022-08-26T22:42:05.569Z,9.30
2022-08-26T22:44:36.660Z,8.40
2022-08-26T22:47:04.852Z,8.68
2022-08-26T22:49:33.067Z,9.38
2022-08-26T22:52:01.272Z,9.20
2022-08-26T22:54:29.356Z,8.85
2022-08-26T22:56:57.615Z,9.68
2022-08-26T22:59:25.856Z,9.48
2022-08-26T23:01:53.944Z,8.68
2022-08-26T23:04:22.362Z,9.40
2022-08-26T23:06:51.829Z,8.88
2022-08-26T23:09:20.381Z,10.63
2022-08-26T23:11:50.584Z,9.13
2022-08-26T23:14:19.577Z,10.02
2022-08-26T23:16:48.067Z,11.55
2022-08-26T23:19:19.650Z,10.43
2022-08-26T23:24:17.652Z,9.75
2022-08-26T23:26:46.922Z,9.68
2022-08-26T23:29:17.328Z,10.27
2022-08-26T23:31:45.751Z,10.20
2022-08-26T23:34:32.830Z,11.23
2022-08-26T23:37:01.412Z,10.35
2022-08-26T23:39:32.804Z,10.20
2022-08-26T23:42:01.891Z,9.32
2022-08-26T23:44:31.156Z,10.95
2022-08-26T23:47:00.149Z,10.15
2022-08-26T23:49:29.096Z,9.25
2022-08-26T23:52:16.121Z,9.45
2022-08-26T23:54:44.882Z,9.13
2022-08-26T23:57:13.120Z,8.50
2022-08-26T23:59:41.777Z,9.55
